« Back
NWS Peachtree City, Ga » Text Product » CSG Terminal Aerodrome Forecast


Printer-friendly Version
Current Version              Previous Versions:   1  2  3  4  5  6  7  8  9  

Terminal Aerodrome Forecast

316
FTUS42 KFFC 231608 AAA
TAFCSG
TAF AMD
KCSG 231608Z 2316/2412 12010G18KT 4SM -SHRA BR OVC006
      TEMPO 2316/2317 1SM TSRA BR OVC008CB
     FM232000 16010G19KT 6SM BR VCSH OVC009
     FM240200 19009KT 4SM BR OVC007=



USA.gov is the U.S. government's official web portal to all federal, state and local government web resources and services.